Time;durP1;ratioP1;P1;durP2;ratioP2;P2;SDS_P1;SDS_P2;PMS_P1;PMS_P2;Temp;Humidity;BMP_temperature;BMP_pressure;BME280_temperature;BME280_humidity;BME280_pressure;Samples;Min_cycle;Max_cycle;Signal;HPM_P1;HPM_P2
2023/03/17 00:01:46;;;;;;;3.92;2.72;;;16.90;62.20;;;;;;5096725;28;20156;-20
2023/03/17 00:04:12;;;;;;;4.47;2.50;;;16.90;62.20;;;;;;5096708;28;20027;-21
2023/03/17 00:06:40;;;;;;;3.92;2.53;;;16.90;62.20;;;;;;5096918;28;20017;-20
2023/03/17 00:09:13;;;;;;;4.72;2.65;;;16.90;62.20;;;;;;5096599;28;20037;-21
2023/03/17 00:11:40;;;;;;;4.95;2.90;;;16.90;62.20;;;;;;5096833;28;20115;-21
2023/03/17 00:14:06;;;;;;;4.05;2.67;;;16.90;62.20;;;;;;5096499;28;20486;-20
2023/03/17 00:16:38;;;;;;;3.50;2.70;;;16.90;62.20;;;;;;5096520;28;20072;-20
2023/03/17 00:19:05;;;;;;;3.78;2.42;;;16.90;62.20;;;;;;5096378;28;20028;-21
2023/03/17 00:21:34;;;;;;;4.25;2.50;;;16.90;62.30;;;;;;5096317;28;20119;-21
2023/03/17 00:24:00;;;;;;;4.63;2.70;;;16.90;62.30;;;;;;5096050;28;20502;-20
2023/03/17 00:26:27;;;;;;;3.80;2.90;;;16.90;62.30;;;;;;5096276;28;20035;-21
2023/03/17 00:28:53;;;;;;;3.70;2.80;;;16.90;62.30;;;;;;5096249;28;20558;-21
2023/03/17 00:31:22;;;;;;;3.30;2.60;;;16.90;62.30;;;;;;5096036;28;20036;-20
2023/03/17 00:33:51;;;;;;;4.55;2.90;;;16.90;62.30;;;;;;5095996;28;20091;-20
2023/03/17 00:36:26;;;;;;;3.70;2.80;;;16.80;62.40;;;;;;5096459;28;20043;-21
2023/03/17 00:38:53;;;;;;;3.35;2.70;;;16.80;62.40;;;;;;5096074;28;20032;-20
2023/03/17 00:41:19;;;;;;;3.55;2.75;;;16.80;62.40;;;;;;5096191;28;20435;-21
2023/03/17 00:43:45;;;;;;;3.70;2.78;;;16.80;62.40;;;;;;5095811;28;20019;-22
2023/03/17 00:46:17;;;;;;;3.17;2.58;;;16.80;62.50;;;;;;5095811;28;20360;-20
2023/03/17 00:48:44;;;;;;;3.00;2.55;;;16.80;62.50;;;;;;5095878;28;20028;-20
2023/03/17 00:51:11;;;;;;;3.88;2.90;;;16.80;62.50;;;;;;5096068;28;20035;-20
2023/03/17 00:53:38;;;;;;;3.35;3.00;;;16.80;62.50;;;;;;5095873;28;20487;-20
2023/03/17 00:56:17;;;;;;;4.82;2.92;;;16.80;62.50;;;;;;5095407;28;20033;-20
2023/03/17 00:58:43;;;;;;;3.08;2.70;;;16.80;62.50;;;;;;5094481;28;20050;-21
2023/03/17 01:01:09;;;;;;;4.20;2.80;;;16.80;62.50;;;;;;5095410;28;20028;-20
2023/03/17 01:03:36;;;;;;;2.85;2.40;;;16.80;62.50;;;;;;5095853;28;20444;-21
2023/03/17 01:06:03;;;;;;;3.35;2.63;;;16.80;62.50;;;;;;5095318;28;20104;-20
2023/03/17 01:08:30;;;;;;;3.95;2.80;;;16.80;62.60;;;;;;5095106;28;20471;-21
2023/03/17 01:10:57;;;;;;;5.55;3.20;;;16.80;62.60;;;;;;5096124;28;20020;-21
2023/03/17 01:13:23;;;;;;;3.97;2.85;;;16.70;62.60;;;;;;5095368;28;20031;-21
2023/03/17 01:15:50;;;;;;;5.25;2.95;;;16.70;62.60;;;;;;5094824;28;20437;-19
2023/03/17 01:18:20;;;;;;;5.63;2.95;;;16.70;62.60;;;;;;5095266;28;20479;-19
2023/03/17 01:20:46;;;;;;;3.85;2.78;;;16.70;62.60;;;;;;5095497;28;20028;-21
2023/03/17 01:23:12;;;;;;;4.07;2.90;;;16.80;62.60;;;;;;5095370;28;20490;-21
2023/03/17 01:25:41;;;;;;;3.90;3.05;;;16.70;62.60;;;;;;5095130;28;20074;-21
2023/03/17 01:28:13;;;;;;;3.10;2.70;;;16.70;62.60;;;;;;5094852;28;20032;-21
2023/03/17 01:30:39;;;;;;;3.30;2.65;;;16.70;62.50;;;;;;5095430;28;20479;-21
2023/03/17 01:33:07;;;;;;;4.20;2.90;;;16.70;62.40;;;;;;5095013;28;20031;-21
2023/03/17 01:35:34;;;;;;;3.40;2.90;;;16.60;62.50;;;;;;5095086;28;20036;-20
2023/03/17 01:38:01;;;;;;;4.20;3.05;;;16.70;62.50;;;;;;5095062;28;20024;-21
2023/03/17 01:40:30;;;;;;;3.08;2.60;;;16.60;62.50;;;;;;5094844;28;20028;-20
2023/03/17 01:43:07;;;;;;;3.85;2.92;;;16.70;62.50;;;;;;5094787;28;20435;-20
2023/03/17 01:46:13;;;;;;;4.35;3.08;;;16.60;62.50;;;;;;5094608;28;20383;-21
2023/03/17 01:49:03;;;;;;;4.20;3.03;;;16.60;62.60;;;;;;5094675;28;20039;-20
2023/03/17 01:51:47;;;;;;;4.38;2.95;;;16.60;62.60;;;;;;5094615;28;20036;-20
2023/03/17 01:54:19;;;;;;;4.63;3.20;;;16.60;62.60;;;;;;5094538;28;20483;-21
2023/03/17 01:56:48;;;;;;;3.97;3.17;;;16.60;62.70;;;;;;5094861;28;20040;-21
2023/03/17 01:59:22;;;;;;;3.95;2.83;;;16.60;62.70;;;;;;5094493;28;20024;-21
2023/03/17 02:01:51;;;;;;;3.83;2.88;;;16.60;62.70;;;;;;5094169;28;20103;-19
2023/03/17 02:04:18;;;;;;;3.38;2.55;;;16.60;62.70;;;;;;5094702;28;20093;-21
2023/03/17 02:06:46;;;;;;;4.95;3.33;;;16.50;62.70;;;;;;5094432;28;20016;-21
2023/03/17 02:09:12;;;;;;;4.03;3.00;;;16.60;62.80;;;;;;5094219;28;20032;-21
2023/03/17 02:11:39;;;;;;;5.25;3.20;;;16.60;62.80;;;;;;5094268;28;20023;-21
2023/03/17 02:14:05;;;;;;;4.50;3.10;;;16.60;62.80;;;;;;5093983;28;20061;-21
2023/03/17 02:16:31;;;;;;;4.47;3.05;;;16.50;62.80;;;;;;5093780;28;20048;-21
2023/03/17 02:18:57;;;;;;;6.55;3.30;;;16.50;62.90;;;;;;5094554;28;20028;-21
2023/03/17 02:21:40;;;;;;;3.33;2.88;;;16.50;62.90;;;;;;5093811;28;20095;-21
2023/03/17 02:24:42;;;;;;;4.05;2.78;;;16.50;62.90;;;;;;5093996;28;20028;-21
2023/03/17 02:27:32;;;;;;;3.65;2.95;;;16.50;62.90;;;;;;5091553;28;20089;-21
2023/03/17 02:29:58;;;;;;;3.97;3.00;;;16.50;62.90;;;;;;5093599;28;20032;-21
2023/03/17 02:32:24;;;;;;;3.47;3.10;;;16.50;62.90;;;;;;5093690;28;20073;-21
2023/03/17 02:34:50;;;;;;;3.40;3.10;;;16.50;62.90;;;;;;5094103;28;20028;-22
2023/03/17 02:37:18;;;;;;;4.43;3.17;;;16.50;63.00;;;;;;5094023;28;20039;-22
2023/03/17 02:39:44;;;;;;;4.32;3.00;;;16.50;63.00;;;;;;5093664;28;20024;-22
2023/03/17 02:42:11;;;;;;;5.25;3.40;;;16.40;62.90;;;;;;5093668;28;20043;-21
2023/03/17 02:44:38;;;;;;;4.53;3.30;;;16.50;63.00;;;;;;5093964;28;20024;-21
2023/03/17 02:47:05;;;;;;;3.28;2.95;;;16.50;62.90;;;;;;5093512;28;20028;-21
2023/03/17 02:49:32;;;;;;;3.85;3.08;;;16.50;62.90;;;;;;5093603;28;20024;-19
2023/03/17 02:51:58;;;;;;;4.53;2.97;;;16.50;63.00;;;;;;5093337;28;20548;-22
2023/03/17 02:54:24;;;;;;;3.92;2.97;;;16.40;63.00;;;;;;5093537;28;20498;-21
2023/03/17 02:56:50;;;;;;;4.30;3.03;;;16.50;63.00;;;;;;5093393;28;20032;-21
2023/03/17 02:59:16;;;;;;;4.00;3.08;;;16.40;63.00;;;;;;5093748;28;20034;-20
2023/03/17 03:01:42;;;;;;;3.92;3.10;;;16.40;63.00;;;;;;5092029;28;20513;-20
2023/03/17 03:04:09;;;;;;;5.05;3.22;;;16.40;63.00;;;;;;5093696;28;20430;-20
2023/03/17 03:06:36;;;;;;;6.18;3.08;;;16.40;63.00;;;;;;5093603;28;20012;-21
2023/03/17 03:09:02;;;;;;;4.30;3.22;;;16.40;63.00;;;;;;5093773;28;20501;-21
2023/03/17 03:11:28;;;;;;;4.13;2.90;;;16.40;63.00;;;;;;5093587;28;20103;-21
2023/03/17 03:13:55;;;;;;;4.93;3.40;;;16.40;63.10;;;;;;5093059;28;20551;-21
2023/03/17 03:16:21;;;;;;;4.57;3.15;;;16.40;63.00;;;;;;5092992;28;20134;-19
2023/03/17 03:18:47;;;;;;;4.10;3.33;;;16.40;63.00;;;;;;5093479;28;20111;-21
2023/03/17 03:21:13;;;;;;;4.60;3.10;;;16.40;63.00;;;;;;5093713;28;20032;-21
2023/03/17 03:23:38;;;;;;;5.13;2.97;;;16.40;63.00;;;;;;5093432;28;20031;-21
2023/03/17 03:26:04;;;;;;;4.97;3.40;;;16.40;63.00;;;;;;5092999;28;20025;-21
2023/03/17 03:28:30;;;;;;;4.78;3.33;;;16.40;63.10;;;;;;5093442;28;20056;-19
2023/03/17 03:30:56;;;;;;;4.03;2.97;;;16.40;63.10;;;;;;5093298;28;20372;-20
2023/03/17 03:33:22;;;;;;;4.10;3.15;;;16.40;63.10;;;;;;5097085;28;20479;-20
2023/03/17 03:35:48;;;;;;;4.65;3.50;;;16.40;63.10;;;;;;5096972;28;20024;-20
2023/03/17 03:38:14;;;;;;;4.88;3.10;;;16.40;63.10;;;;;;5097518;28;20035;-20
2023/03/17 03:40:40;;;;;;;3.55;2.88;;;16.30;63.10;;;;;;5097162;28;20028;-21
2023/03/17 03:43:06;;;;;;;4.82;3.05;;;16.30;63.10;;;;;;5097061;28;20026;-21
2023/03/17 03:45:32;;;;;;;5.07;3.47;;;16.40;63.10;;;;;;5096964;28;20063;-22
2023/03/17 03:47:58;;;;;;;4.07;2.97;;;16.30;63.10;;;;;;5096811;28;20028;-21
2023/03/17 03:50:24;;;;;;;5.25;3.38;;;16.30;63.20;;;;;;5097275;28;20085;-21
2023/03/17 03:52:50;;;;;;;4.63;3.25;;;16.30;63.20;;;;;;5097270;28;20035;-21
2023/03/17 03:55:16;;;;;;;3.38;2.95;;;16.30;63.20;;;;;;5095600;28;20388;-22
2023/03/17 03:57:42;;;;;;;4.97;3.25;;;16.30;63.20;;;;;;5096860;28;20024;-21
2023/03/17 04:00:09;;;;;;;5.00;3.45;;;16.30;63.20;;;;;;5097121;28;20027;-21
2023/03/17 04:02:36;;;;;;;3.78;3.20;;;16.30;63.20;;;;;;5095405;28;20111;-21
2023/03/17 04:05:02;;;;;;;5.82;3.55;;;16.30;63.20;;;;;;5096645;28;20035;-21
2023/03/17 04:07:28;;;;;;;4.85;3.50;;;16.30;63.20;;;;;;5096643;28;20035;-21
2023/03/17 04:09:58;;;;;;;4.60;3.45;;;16.20;63.10;;;;;;5096394;28;20514;-21
2023/03/17 04:12:25;;;;;;;4.13;3.20;;;16.30;63.10;;;;;;5096736;28;20467;-20
2023/03/17 04:14:50;;;;;;;4.63;3.40;;;16.20;63.20;;;;;;5096643;28;20052;-21
2023/03/17 04:17:16;;;;;;;4.70;3.22;;;16.20;63.20;;;;;;5096392;28;20024;-21
2023/03/17 04:19:42;;;;;;;4.55;3.10;;;16.20;63.20;;;;;;5095188;28;20077;-21
2023/03/17 04:22:10;;;;;;;4.45;3.13;;;16.20;63.20;;;;;;5096570;28;20024;-20
2023/03/17 04:24:37;;;;;;;5.00;3.20;;;16.20;63.20;;;;;;5095177;28;20024;-21
2023/03/17 04:27:03;;;;;;;4.30;3.15;;;16.20;63.30;;;;;;5096248;28;20391;-20
2023/03/17 04:29:30;;;;;;;3.95;2.92;;;16.20;63.20;;;;;;5096175;28;20016;-21
2023/03/17 04:31:56;;;;;;;3.83;2.95;;;16.20;63.30;;;;;;5095968;28;20414;-21
2023/03/17 04:34:23;;;;;;;4.85;3.10;;;16.20;63.30;;;;;;5096443;28;20024;-19
2023/03/17 04:36:49;;;;;;;3.83;3.10;;;16.20;63.30;;;;;;5096027;28;20039;-19
2023/03/17 04:39:15;;;;;;;4.65;3.38;;;16.20;63.30;;;;;;5096088;28;20030;-21
2023/03/17 04:41:41;;;;;;;4.45;3.45;;;16.20;63.30;;;;;;5096274;28;20073;-21
2023/03/17 04:44:07;;;;;;;5.00;3.17;;;16.20;63.30;;;;;;5095268;28;20068;-20
2023/03/17 04:46:34;;;;;;;4.18;3.00;;;16.10;63.30;;;;;;5096146;28;20054;-21
2023/03/17 04:49:00;;;;;;;4.38;3.45;;;16.20;63.30;;;;;;5095869;28;20028;-21
2023/03/17 04:51:26;;;;;;;4.63;3.15;;;16.10;63.30;;;;;;5096033;28;20024;-20
2023/03/17 04:53:52;;;;;;;4.50;3.15;;;16.20;63.40;;;;;;5095634;28;20437;-21
2023/03/17 04:56:18;;;;;;;5.28;3.42;;;16.10;63.40;;;;;;5095614;28;20033;-21
2023/03/17 04:58:44;;;;;;;4.85;3.33;;;16.20;63.40;;;;;;5095983;28;20016;-20
2023/03/17 05:01:10;;;;;;;4.65;3.38;;;16.10;63.50;;;;;;5095537;28;20111;-21
2023/03/17 05:03:36;;;;;;;4.55;3.10;;;16.10;63.40;;;;;;5095911;28;20120;-20
2023/03/17 05:06:03;;;;;;;6.05;3.63;;;16.10;63.50;;;;;;5095616;28;20379;-21
2023/03/17 05:08:30;;;;;;;4.82;3.28;;;16.10;63.50;;;;;;5095980;28;20029;-20
2023/03/17 05:10:57;;;;;;;4.85;3.35;;;16.10;63.50;;;;;;5095462;28;20059;-21
2023/03/17 05:13:24;;;;;;;4.35;3.40;;;16.10;63.40;;;;;;5095531;28;20538;-21
2023/03/17 05:15:52;;;;;;;4.60;3.40;;;16.10;63.40;;;;;;5094849;28;20392;-19
2023/03/17 05:18:20;;;;;;;3.88;3.20;;;16.00;63.40;;;;;;5095331;28;20016;-20
2023/03/17 05:20:46;;;;;;;4.72;3.22;;;16.00;63.30;;;;;;5095229;28;20121;-20
2023/03/17 05:23:13;;;;;;;3.80;3.10;;;16.10;63.40;;;;;;5095499;28;20479;-20
2023/03/17 05:25:40;;;;;;;4.55;3.30;;;16.00;63.40;;;;;;5095112;28;20471;-20
2023/03/17 05:28:07;;;;;;;4.28;3.00;;;16.00;63.40;;;;;;5094970;28;20493;-20
2023/03/17 05:30:37;;;;;;;4.68;3.05;;;16.10;63.50;;;;;;5095078;28;20059;-20
2023/03/17 05:33:03;;;;;;;4.97;3.05;;;16.00;63.50;;;;;;5094940;28;20416;-21
2023/03/17 05:35:29;;;;;;;4.22;2.97;;;16.00;63.50;;;;;;5095167;28;20024;-20
2023/03/17 05:37:55;;;;;;;4.22;3.08;;;16.00;63.60;;;;;;5095011;28;20474;-20
2023/03/17 05:40:22;;;;;;;4.15;2.92;;;16.00;63.60;;;;;;5095379;28;20073;-21
2023/03/17 05:42:50;;;;;;;4.53;3.20;;;16.00;63.60;;;;;;5094815;28;20429;-21
2023/03/17 05:45:17;;;;;;;4.13;3.38;;;16.00;63.50;;;;;;5095082;28;20024;-20
2023/03/17 05:47:43;;;;;;;4.13;2.92;;;16.00;63.50;;;;;;5094726;28;20112;-23
2023/03/17 05:50:11;;;;;;;4.47;3.08;;;16.10;63.50;;;;;;5095477;28;20035;-21
2023/03/17 05:52:37;;;;;;;5.38;3.28;;;16.10;63.50;;;;;;5094948;28;20036;-21
2023/03/17 05:55:05;;;;;;;3.42;3.03;;;16.20;63.40;;;;;;5093822;28;20027;-21
2023/03/17 05:57:30;;;;;;;4.30;3.40;;;16.20;63.30;;;;;;5094571;28;20077;-21
2023/03/17 05:59:56;;;;;;;4.18;3.20;;;16.30;63.20;;;;;;5092944;28;20131;-21
2023/03/17 06:02:22;;;;;;;5.03;3.45;;;16.40;63.00;;;;;;5094356;28;20020;-21
2023/03/17 06:04:48;;;;;;;3.70;3.10;;;16.40;62.80;;;;;;5094300;28;20032;-21
2023/03/17 06:07:14;;;;;;;3.95;3.00;;;16.50;62.70;;;;;;5094402;28;20024;-20
2023/03/17 06:09:40;;;;;;;3.88;3.08;;;16.60;62.60;;;;;;5094289;28;20073;-20
2023/03/17 06:12:07;;;;;;;4.28;3.35;;;16.60;62.50;;;;;;5094330;28;20028;-21
2023/03/17 06:14:33;;;;;;;4.18;3.03;;;16.60;62.40;;;;;;5094041;28;20031;-21
2023/03/17 06:16:59;;;;;;;4.70;3.20;;;16.60;62.30;;;;;;5094298;28;20036;-20
2023/03/17 06:19:24;;;;;;;4.60;3.30;;;16.70;62.30;;;;;;5094107;28;20552;-20
2023/03/17 06:21:50;;;;;;;3.70;3.08;;;16.70;62.30;;;;;;5093834;28;20035;-20
2023/03/17 06:24:16;;;;;;;4.30;3.25;;;16.80;62.20;;;;;;5093965;28;20024;-21
2023/03/17 06:26:42;;;;;;;4.07;3.17;;;16.80;62.10;;;;;;5093982;28;20082;-21
2023/03/17 06:29:08;;;;;;;4.38;3.40;;;16.80;62.00;;;;;;5094234;28;20467;-21
2023/03/17 06:31:36;;;;;;;4.20;3.17;;;16.90;61.80;;;;;;5094106;28;20107;-21
2023/03/17 06:34:02;;;;;;;4.97;3.40;;;17.10;61.60;;;;;;5093742;28;20024;-21
2023/03/17 06:36:31;;;;;;;4.38;3.25;;;17.30;61.30;;;;;;5093799;28;20026;-21
2023/03/17 06:38:58;;;;;;;4.20;3.10;;;17.40;61.00;;;;;;5094124;28;20024;-21
2023/03/17 06:41:24;;;;;;;5.03;3.22;;;17.50;60.70;;;;;;5094073;28;20023;-21
2023/03/17 06:43:51;;;;;;;4.88;3.20;;;17.60;60.50;;;;;;5093624;28;20032;-21
2023/03/17 06:46:17;;;;;;;4.40;3.17;;;17.70;60.40;;;;;;5093990;28;20020;-21
2023/03/17 06:48:43;;;;;;;5.72;3.22;;;17.70;60.20;;;;;;5093936;28;20027;-21
2023/03/17 06:51:09;;;;;;;3.90;2.92;;;17.80;60.10;;;;;;5092408;28;20383;-21
2023/03/17 06:53:36;;;;;;;4.28;2.92;;;17.90;60.00;;;;;;5093876;28;20043;-22
2023/03/17 06:56:03;;;;;;;3.90;3.05;;;17.90;59.90;;;;;;5093578;28;20032;-21
2023/03/17 06:58:30;;;;;;;4.38;3.38;;;17.90;59.80;;;;;;5093740;28;20144;-21
2023/03/17 07:00:57;;;;;;;4.15;2.92;;;17.90;59.70;;;;;;5093594;28;20085;-21
2023/03/17 07:03:24;;;;;;;4.20;2.97;;;18.00;59.60;;;;;;5093728;28;20073;-21
2023/03/17 07:05:51;;;;;;;3.90;3.35;;;18.00;59.50;;;;;;5093060;28;20066;-22
2023/03/17 07:08:17;;;;;;;3.55;3.00;;;18.20;59.40;;;;;;5093226;28;20024;-21
2023/03/17 07:10:44;;;;;;;6.38;3.47;;;18.30;59.20;;;;;;5093313;28;20034;-22
2023/03/17 07:13:10;;;;;;;3.85;3.00;;;18.40;59.00;;;;;;5093567;28;20096;-21
2023/03/17 07:15:37;;;;;;;4.13;3.10;;;18.50;58.60;;;;;;5092943;28;20146;-22
2023/03/17 07:18:05;;;;;;;4.57;3.40;;;18.60;58.30;;;;;;5093164;28;20052;-21
2023/03/17 07:20:31;;;;;;;4.35;3.30;;;18.70;58.10;;;;;;5093072;28;20460;-22
2023/03/17 07:22:57;;;;;;;5.03;3.70;;;18.70;58.00;;;;;;5093471;28;20032;-21
2023/03/17 07:25:23;;;;;;;4.65;3.40;;;18.60;58.00;;;;;;5093148;28;20393;-20
2023/03/17 07:27:50;;;;;;;4.47;3.22;;;18.70;57.90;;;;;;5092901;28;20028;-20
2023/03/17 07:30:19;;;;;;;3.97;3.00;;;18.90;57.80;;;;;;5093121;28;20141;-21
2023/03/17 07:32:45;;;;;;;5.32;3.30;;;18.90;57.40;;;;;;5091784;28;20024;-21
2023/03/17 07:35:11;;;;;;;4.18;3.20;;;19.10;57.20;;;;;;5093035;28;20028;-21
2023/03/17 07:37:37;;;;;;;5.20;3.42;;;19.20;56.90;;;;;;5092998;28;20111;-21
2023/03/17 07:40:05;;;;;;;5.20;3.45;;;19.30;56.70;;;;;;5093142;28;20054;-21
2023/03/17 07:42:31;;;;;;;4.40;3.58;;;19.20;56.70;;;;;;5093259;28;20020;-21
2023/03/17 07:44:57;;;;;;;4.70;3.20;;;19.20;56.70;;;;;;5093241;28;20092;-21
2023/03/17 07:47:23;;;;;;;4.05;3.20;;;19.10;56.70;;;;;;5093037;28;20112;-21
2023/03/17 07:49:48;;;;;;;4.25;3.33;;;19.00;56.80;;;;;;5093025;28;20471;-22
2023/03/17 07:52:15;;;;;;;4.72;3.17;;;18.90;57.00;;;;;;5093229;28;20483;-21
2023/03/17 07:54:40;;;;;;;4.82;3.50;;;18.90;57.20;;;;;;5092905;28;20020;-21
2023/03/17 07:57:06;;;;;;;5.45;3.22;;;18.70;57.40;;;;;;5092732;28;20031;-22
2023/03/17 07:59:32;;;;;;;4.47;3.13;;;18.60;57.60;;;;;;5093115;28;20032;-21
2023/03/17 08:02:00;;;;;;;5.32;3.03;;;18.60;57.80;;;;;;5092476;28;20028;-23
2023/03/17 08:04:26;;;;;;;4.00;2.83;;;18.60;58.10;;;;;;5092789;28;20029;-24
2023/03/17 08:06:53;;;;;;;4.40;2.45;;;18.50;58.20;;;;;;5092800;28;20024;-23
2023/03/17 08:09:21;;;;;;;4.97;2.58;;;18.50;58.20;;;;;;5092737;28;20472;-24
2023/03/17 08:11:47;;;;;;;2.97;2.45;;;18.50;58.20;;;;;;5092952;28;20559;-24
2023/03/17 08:14:13;;;;;;;3.97;2.58;;;18.40;58.20;;;;;;5092721;28;20068;-23
2023/03/17 08:16:39;;;;;;;3.67;2.85;;;18.40;58.30;;;;;;5092285;28;20117;-23
2023/03/17 08:19:05;;;;;;;6.03;2.70;;;18.40;58.20;;;;;;5094401;28;20491;-24
2023/03/17 08:21:31;;;;;;;4.10;2.85;;;18.40;58.30;;;;;;5096757;28;20088;-23
2023/03/17 08:23:57;;;;;;;3.75;2.90;;;18.40;58.20;;;;;;5096202;28;20024;-23
2023/03/17 08:26:23;;;;;;;2.90;2.53;;;18.40;58.20;;;;;;5096640;28;20028;-23
2023/03/17 08:28:49;;;;;;;4.30;2.65;;;18.30;58.20;;;;;;5096626;28;20149;-24
2023/03/17 08:31:20;;;;;;;3.55;2.78;;;18.30;58.20;;;;;;5094916;28;20122;-23
2023/03/17 08:33:49;;;;;;;3.25;2.58;;;18.30;58.20;;;;;;5096313;28;20047;-23
2023/03/17 08:36:16;;;;;;;3.38;2.75;;;18.30;58.30;;;;;;5096372;28;20055;-24
2023/03/17 08:38:43;;;;;;;4.13;2.90;;;18.30;58.20;;;;;;5096424;28;20046;-23
2023/03/17 08:41:13;;;;;;;4.22;2.67;;;18.20;58.20;;;;;;5096358;28;20422;-23
2023/03/17 08:43:40;;;;;;;3.22;2.50;;;18.20;58.20;;;;;;5096126;28;20071;-23
2023/03/17 08:46:08;;;;;;;5.82;2.55;;;18.20;58.20;;;;;;5095991;28;20101;-23
2023/03/17 08:48:36;;;;;;;3.85;2.70;;;18.20;58.20;;;;;;5095946;28;20119;-24
2023/03/17 08:51:04;;;;;;;3.60;2.67;;;18.20;58.20;;;;;;5095832;28;20501;-25
2023/03/17 08:53:31;;;;;;;3.60;2.42;;;18.20;58.20;;;;;;5096102;28;20020;-24
2023/03/17 08:55:57;;;;;;;4.05;2.83;;;18.20;58.20;;;;;;5094305;28;20036;-25
2023/03/17 08:58:24;;;;;;;4.05;2.92;;;18.20;58.20;;;;;;5095818;28;20091;-24
2023/03/17 09:00:51;;;;;;;3.20;2.70;;;18.20;58.30;;;;;;5095937;28;20102;-24
2023/03/17 09:03:17;;;;;;;2.97;2.60;;;18.20;58.20;;;;;;5095536;28;20024;-24
2023/03/17 09:05:44;;;;;;;4.88;2.80;;;18.20;58.30;;;;;;5095442;28;20017;-24
2023/03/17 09:08:11;;;;;;;3.70;2.65;;;18.20;58.30;;;;;;5095881;28;20106;-24
2023/03/17 09:10:38;;;;;;;4.28;2.85;;;18.20;58.30;;;;;;5095500;28;20028;-24
2023/03/17 09:13:04;;;;;;;6.70;2.85;;;18.20;58.30;;;;;;5094238;28;20430;-24
2023/03/17 09:15:32;;;;;;;3.78;2.95;;;18.20;58.30;;;;;;5095304;28;20044;-24
2023/03/17 09:17:59;;;;;;;4.18;2.60;;;18.20;58.30;;;;;;5095020;28;20031;-25
2023/03/17 09:20:25;;;;;;;3.70;2.75;;;18.30;58.30;;;;;;5095329;28;20020;-24
2023/03/17 09:22:51;;;;;;;4.35;2.88;;;18.20;58.20;;;;;;5095798;28;20036;-24
2023/03/17 09:25:17;;;;;;;5.30;2.92;;;18.20;58.20;;;;;;5095525;28;20020;-24
2023/03/17 09:27:43;;;;;;;4.32;2.58;;;18.20;58.20;;;;;;5095096;28;20024;-24
2023/03/17 09:30:12;;;;;;;3.83;3.08;;;18.20;58.20;;;;;;5094951;28;20031;-24
2023/03/17 09:32:39;;;;;;;4.63;2.95;;;18.20;58.20;;;;;;5094995;28;20031;-25
2023/03/17 09:35:05;;;;;;;5.45;2.72;;;18.20;58.20;;;;;;5095013;28;20154;-24
2023/03/17 09:37:33;;;;;;;8.75;3.28;;;18.20;58.20;;;;;;5095082;28;20067;-24
2023/03/17 09:39:59;;;;;;;5.43;2.78;;;18.20;58.20;;;;;;5093512;28;20506;-24
2023/03/17 09:42:57;;;;;;;3.80;2.67;;;18.30;58.20;;;;;;5095097;28;20383;-23
2023/03/17 09:45:31;;;;;;;6.20;2.90;;;18.30;57.90;;;;;;5095048;28;20028;-23
2023/03/17 09:48:21;;;;;;;5.63;3.13;;;18.20;57.80;;;;;;5094547;28;20027;-24
2023/03/17 09:50:57;;;;;;;4.47;3.00;;;18.20;57.60;;;;;;5094754;28;20119;-24
2023/03/17 09:53:39;;;;;;;4.75;3.03;;;18.20;57.50;;;;;;5094732;28;20471;-23
2023/03/17 09:56:12;;;;;;;4.65;2.90;;;18.30;57.30;;;;;;5094382;28;20480;-24
2023/03/17 09:58:43;;;;;;;4.63;3.20;;;18.20;57.20;;;;;;5094601;28;20020;-24
2023/03/17 10:01:11;;;;;;;6.30;3.00;;;18.20;57.10;;;;;;5094807;28;20052;-24
2023/03/17 10:03:37;;;;;;;4.00;2.58;;;18.20;56.80;;;;;;5094510;28;20414;-24
2023/03/17 10:06:20;;;;;;;3.42;2.53;;;18.20;56.70;;;;;;5094566;28;20075;-24
2023/03/17 10:09:11;;;;;;;6.18;3.08;;;18.20;56.50;;;;;;5094488;28;20467;-24
2023/03/17 10:11:44;;;;;;;4.30;2.65;;;18.20;56.40;;;;;;5094517;28;20024;-24
2023/03/17 10:14:11;;;;;;;;;;;18.20;56.50;;;;;;5095221;28;20110;-23
2023/03/17 10:16:43;;;;;;;4.15;2.63;;;18.20;55.90;;;;;;5093944;28;19955;-24
2023/03/17 10:19:25;;;;;;;3.83;2.53;;;18.20;56.40;;;;;;5094187;28;20028;-24
2023/03/17 10:22:04;;;;;;;5.57;2.70;;;18.20;55.90;;;;;;5094264;28;20364;-25
2023/03/17 10:24:32;;;;;;;7.50;3.00;;;18.20;56.00;;;;;;5095044;28;20016;-24
2023/03/17 10:27:03;;;;;;;4.97;2.60;;;18.10;55.80;;;;;;5094381;28;20472;-24
2023/03/17 10:29:31;;;;;;;4.45;2.78;;;18.10;55.80;;;;;;5094178;28;20479;-24
2023/03/17 10:31:57;;;;;;;5.82;3.03;;;18.10;55.70;;;;;;5093992;28;20051;-24
2023/03/17 10:34:31;;;;;;;5.00;2.88;;;18.10;55.60;;;;;;5094269;28;20028;-24
2023/03/17 10:37:22;;;;;;;4.68;2.90;;;18.10;55.30;;;;;;5093977;28;20028;-23
2023/03/17 10:39:56;;;;;;;7.20;2.75;;;18.10;55.10;;;;;;5088404;28;20365;-24
2023/03/17 10:42:28;;;;;;;6.07;2.97;;;18.10;55.20;;;;;;5093546;28;20056;-24
2023/03/17 10:44:55;;;;;;;5.60;2.77;;;18.10;55.10;;;;;;5094208;28;20040;-23
2023/03/17 10:47:30;;;;;;;4.63;2.97;;;18.10;55.00;;;;;;5093556;28;20032;-24
2023/03/17 10:50:16;;;;;;;4.15;2.55;;;18.10;54.90;;;;;;5093775;28;20024;-23
2023/03/17 10:52:45;;;;;;;4.20;2.60;;;18.10;54.80;;;;;;5094030;28;20042;-23
2023/03/17 10:55:16;;;;;;;3.80;2.90;;;18.00;54.60;;;;;;5093572;28;20453;-24
2023/03/17 10:58:08;;;;;;;3.90;2.40;;;18.00;54.50;;;;;;5093574;28;20391;-26
2023/03/17 11:00:37;;;;;;;3.75;2.45;;;18.00;54.30;;;;;;5091407;28;20036;-23
2023/03/17 11:03:28;;;;;;;3.42;2.60;;;18.00;54.70;;;;;;5093382;28;20061;-23
2023/03/17 11:06:07;;;;;;;4.45;2.70;;;18.00;54.80;;;;;;5093252;28;20032;-24
2023/03/17 11:09:05;;;;;;;3.53;2.40;;;18.00;54.80;;;;;;5093441;28;20027;-23
2023/03/17 11:11:40;;;;;;;3.20;2.35;;;18.00;54.60;;;;;;5093299;28;20032;-24
2023/03/17 11:14:12;;;;;;;4.43;2.47;;;18.00;54.90;;;;;;5093181;28;20020;-24
2023/03/17 11:16:53;;;;;;;3.83;2.60;;;18.00;54.90;;;;;;5092771;28;20552;-24
2023/03/17 11:19:33;;;;;;;5.80;2.53;;;18.00;54.90;;;;;;5093477;28;20027;-25
2023/03/17 11:21:59;;;;;;;4.13;2.40;;;18.00;54.90;;;;;;5093003;28;20035;-24
2023/03/17 11:24:35;;;;;;;3.45;2.13;;;18.00;54.90;;;;;;5093200;28;20036;-25
2023/03/17 11:27:27;;;;;;;2.60;2.15;;;18.00;55.00;;;;;;5093138;28;20483;-24
2023/03/17 11:30:17;;;;;;;3.00;2.30;;;18.00;55.00;;;;;;5092973;28;20082;-24
2023/03/17 11:32:55;;;;;;;4.75;2.55;;;18.00;55.20;;;;;;5093066;28;20056;-24
2023/03/17 11:35:37;;;;;;;3.25;2.30;;;18.00;55.00;;;;;;5093235;28;20036;-24
2023/03/17 11:38:30;;;;;;;3.88;2.17;;;18.00;55.10;;;;;;5092832;28;20434;-24
2023/03/17 11:41:40;;;;;;;4.03;2.10;;;18.00;55.10;;;;;;5093338;28;20048;-24
2023/03/17 11:44:48;;;;;;;3.08;2.22;;;18.00;55.20;;;;;;5092865;28;20028;-24
2023/03/17 11:47:31;;;;;;;4.88;2.83;;;18.00;55.30;;;;;;5093187;28;20426;-25
2023/03/17 11:50:10;;;;;;;3.67;2.22;;;17.90;55.20;;;;;;5093023;28;20032;-25
2023/03/17 11:52:35;;;;;;;3.65;2.28;;;18.00;55.10;;;;;;5094271;28;20020;-24
2023/03/17 11:55:07;;;;;;;3.20;1.92;;;18.00;55.00;;;;;;5096934;28;20073;-24
2023/03/17 11:57:49;;;;;;;3.30;2.33;;;17.90;55.10;;;;;;5095612;28;20036;-24
2023/03/17 12:00:22;;;;;;;3.15;2.30;;;17.90;55.40;;;;;;5096887;28;20028;-24
2023/03/17 12:03:16;;;;;;;3.75;2.30;;;17.90;55.40;;;;;;5097070;28;20048;-24
2023/03/17 12:05:46;;;;;;;3.58;2.03;;;17.90;55.20;;;;;;5097133;28;20028;-24
2023/03/17 12:08:15;;;;;;;4.18;2.20;;;17.90;55.30;;;;;;5097044;28;20024;-24
2023/03/17 12:10:48;;;;;;;4.65;2.42;;;17.90;55.40;;;;;;5096966;28;20042;-24
2023/03/17 12:13:38;;;;;;;3.55;2.47;;;17.90;55.40;;;;;;5096682;28;20063;-24
2023/03/17 12:16:33;;;;;;;5.63;2.47;;;17.90;55.00;;;;;;5096117;28;20598;-24
2023/03/17 12:19:22;;;;;;;4.53;2.50;;;17.90;54.80;;;;;;5096582;28;20035;-24
2023/03/17 12:22:07;;;;;;;4.53;2.38;;;17.90;54.50;;;;;;5096618;28;20051;-24
2023/03/17 12:24:39;;;;;;;3.08;2.33;;;17.90;54.60;;;;;;5096890;28;20025;-24
2023/03/17 12:27:12;;;;;;;2.70;1.90;;;17.90;54.80;;;;;;5096425;28;20490;-24
2023/03/17 12:29:59;;;;;;;3.60;2.00;;;17.90;54.80;;;;;;5096684;28;20024;-25
2023/03/17 12:32:39;;;;;;;5.07;2.20;;;17.80;55.00;;;;;;5096212;28;20357;-23
2023/03/17 12:35:27;;;;;;;3.78;2.13;;;17.80;54.90;;;;;;5096281;28;20055;-23
2023/03/17 12:37:56;;;;;;;4.00;2.13;;;17.80;54.80;;;;;;5096258;28;20060;-24
2023/03/17 12:40:32;;;;;;;2.72;1.88;;;17.80;55.10;;;;;;5096562;28;20024;-24
2023/03/17 12:43:14;;;;;;;2.28;1.95;;;17.80;55.20;;;;;;5096398;28;20031;-23
2023/03/17 12:45:48;;;;;;;3.35;2.10;;;17.80;55.30;;;;;;5096039;28;20090;-24
2023/03/17 12:48:52;;;;;;;3.55;2.30;;;17.80;55.50;;;;;;5095944;28;20031;-24
2023/03/17 12:52:01;;;;;;;2.78;2.05;;;17.80;55.00;;;;;;5095916;28;20026;-24
2023/03/17 12:54:33;;;;;;;2.78;1.95;;;17.90;55.40;;;;;;5081505;28;20065;-24
2023/03/17 12:57:18;;;;;;;2.75;2.10;;;17.80;55.40;;;;;;5095783;28;20056;-24
2023/03/17 12:59:47;;;;;;;3.35;1.98;;;17.80;55.30;;;;;;5095908;28;20436;-24
2023/03/17 13:02:22;;;;;;;3.05;2.05;;;17.80;55.10;;;;;;5095529;28;20032;-23
2023/03/17 13:05:00;;;;;;;2.90;2.05;;;17.80;55.20;;;;;;5095477;28;20031;-24